»·PEaware :: N664NT KEWR-KJFK

N664NT :: KEWR-KJFK

FLIGHT INFORMATION

Flight Status: Arrived
Operator: Privately registered:
United States
More flights under this callsign
Pilot: Anonymous 328 (328)
Aircraft: Unknown
(GA7C)
More flights by this aircraft type
Origin: KEWR Newark Intl
United States
Destination: KJFK Kennedy Intl
United States
More flights between these airports :: More routes between these airports
Route: EWR4 BREZY V39 CMK V419 JUDDS NELIE MAD V1 DPK
File this flight plan on PilotEdge
Remarks:
Altitude:
(Current/Filed)
6,000ft
Speed:
(Current/Filed)
0kts
Departed: 07-Dec-22 12:18 PM
Arrived: 07-Dec-22 01:16 PM
Distance/Time
Traveled:
19nm/0:58
Distance/Time
To Go:
Arrived

Flight Plot

Page will automatically refresh every two minutes.

Flight plan parsing failed; only flown route is shown


Map Options




Map Legend


Flown Route
Filed Route
Departure Airport
Arrival Airport
Navaid (VOR, NDB)
Fix

Horizontal Profiles

Position Reports

Time Latitude Longitude Heading Altitude Ground
Speed
07-Dec-22 12:08 40.698650 -74.166222 205 19ft 0kts
07-Dec-22 12:09 40.698650 -74.166222 205 19ft 0kts
07-Dec-22 12:10 40.698650 -74.166222 205 19ft 0kts
07-Dec-22 12:11 40.698254 -74.166473 205 19ft 17kts
07-Dec-22 12:12 40.692474 -74.170151 206 19ft 26kts
07-Dec-22 12:13 40.686207 -74.174156 205 19ft 23kts
07-Dec-22 12:14 40.680557 -74.177750 205 19ft 21kts
07-Dec-22 12:15 40.676907 -74.180092 205 19ft 0kts
07-Dec-22 12:16 40.675587 -74.179543 111 19ft 9kts
07-Dec-22 12:17 40.695812 -74.166550 26 944ft 202kts
07-Dec-22 12:18 40.743519 -74.104042 46 2978ft 264kts
07-Dec-22 12:19 40.805466 -74.085335 316 3096ft 260kts
07-Dec-22 12:20 40.822758 -74.176315 276 3326ft 263kts
07-Dec-22 12:21 40.831963 -74.273170 282 5089ft 268kts
07-Dec-22 12:22 40.891453 -74.303680 25 6010ft 272kts
07-Dec-22 12:24 40.959686 -74.259773 25 6000ft 272kts
07-Dec-22 12:25 41.029133 -74.216118 25 8769ft 280kts
07-Dec-22 12:26 41.105465 -74.168114 25 10912ft 347kts
07-Dec-22 12:27 41.170475 -74.080383 73 11009ft 350kts
07-Dec-22 12:28 41.197834 -73.956429 73 11008ft 350kts
07-Dec-22 12:29 41.225269 -73.832024 73 11004ft 350kts
07-Dec-22 12:30 41.254353 -73.699532 73 11005ft 379kts
07-Dec-22 12:31 41.287777 -73.574722 54 11008ft 350kts
07-Dec-22 12:32 41.354900 -73.480545 46 10966ft 351kts
07-Dec-22 12:33 41.422192 -73.386147 46 11006ft 350kts
07-Dec-22 12:34 41.489559 -73.292412 46 11024ft 350kts
07-Dec-22 12:35 41.558247 -73.199928 39 11077ft 351kts
07-Dec-22 12:36 41.630577 -73.112617 43 11006ft 349kts
07-Dec-22 12:37 41.699135 -73.020386 45 11005ft 350kts
07-Dec-22 12:38 41.767433 -72.927124 45 11006ft 350kts
07-Dec-22 12:39 41.835247 -72.833328 46 10378ft 347kts
07-Dec-22 12:40 41.901451 -72.741394 45 8382ft 337kts
07-Dec-22 12:41 41.961807 -72.653511 69 6174ft 302kts
07-Dec-22 12:42 41.905079 -72.616699 199 3593ft 281kts
07-Dec-22 12:43 41.844887 -72.676018 219 2014ft 256kts
07-Dec-22 12:44 41.793972 -72.742584 230 2003ft 257kts
07-Dec-22 12:44 41.751678 -72.797714 207 2026ft 257kts
07-Dec-22 12:46 41.677616 -72.849785 206 2486ft 261kts
07-Dec-22 12:47 41.610180 -72.839691 160 3317ft 263kts
07-Dec-22 12:48 41.540401 -72.805000 159 8594ft 277kts
07-Dec-22 12:48 41.478275 -72.773972 159 10005ft 289kts
07-Dec-22 12:49 41.403179 -72.736534 159 10007ft 288kts
07-Dec-22 12:51 41.313477 -72.707932 193 10007ft 288kts
07-Dec-22 12:51 41.258907 -72.757416 221 10007ft 288kts
07-Dec-22 12:52 41.198967 -72.828094 221 10004ft 288kts
07-Dec-22 12:53 41.138813 -72.898895 221 10004ft 288kts
07-Dec-22 12:55 41.068569 -72.981323 221 10004ft 288kts
07-Dec-22 12:55 41.018715 -73.039680 221 9275ft 285kts
07-Dec-22 12:56 40.959763 -73.108536 221 7777ft 279kts
07-Dec-22 12:57 40.902084 -73.175743 221 6276ft 272kts
07-Dec-22 12:58 40.845310 -73.241714 221 6004ft 272kts
07-Dec-22 12:59 40.793514 -73.309578 246 6005ft 235kts
07-Dec-22 13:00 40.783482 -73.391624 262 6004ft 209kts
07-Dec-22 13:01 40.776680 -73.462753 262 5112ft 200kts
07-Dec-22 13:02 40.770000 -73.532486 262 4857ft 182kts
07-Dec-22 13:03 40.763596 -73.599030 262 4999ft 181kts
07-Dec-22 13:04 40.774994 -73.654907 353 5011ft 182kts
07-Dec-22 13:05 40.796589 -73.603508 83 5002ft 182kts
07-Dec-22 13:06 40.802864 -73.536819 83 5003ft 182kts
07-Dec-22 13:07 40.808662 -73.470131 99 4637ft 186kts
07-Dec-22 13:08 40.768673 -73.460228 248 3160ft 180kts
07-Dec-22 13:09 40.769402 -73.525085 266 2666ft 176kts
07-Dec-22 13:10 40.762009 -73.588966 265 2509ft 176kts
07-Dec-22 13:11 40.746929 -73.645462 222 2507ft 158kts
07-Dec-22 13:12 40.716343 -73.686600 231 1825ft 162kts
07-Dec-22 13:13 40.682434 -73.725647 211 643ft 158kts
07-Dec-22 13:14 40.646420 -73.753906 210 60ft 144kts
07-Dec-22 13:15 40.633152 -73.764297 210 20ft 0kts
07-Dec-22 13:16 40.633152 -73.764297 210 20ft 0kts
07-Dec-22 13:17 40.633152 -73.764297 210 20ft 0kts
07-Dec-22 13:18 40.633152 -73.764297 210 20ft 0kts
07-Dec-22 13:19 40.633152 -73.764297 210 20ft 0kts
07-Dec-22 13:20 40.633152 -73.764297 210 20ft 0kts

Navigation Log

Ident Type
Flight plan parsing failed, navigation log unavailable